sensor_id;sensor_type;location;lat;lon;timestamp;P1;durP1;ratioP1;P2;durP2;ratioP2
70153;SDS011;57519;51.494;-2.626;2022-11-12T00:00:22;8.87;;;5.47;;
70153;SDS011;57519;51.494;-2.626;2022-11-12T00:02:47;12.67;;;6.60;;
70153;SDS011;57519;51.494;-2.626;2022-11-12T00:05:13;15.43;;;6.83;;
70153;SDS011;57519;51.494;-2.626;2022-11-12T00:07:38;12.40;;;6.13;;
70153;SDS011;57519;51.494;-2.626;2022-11-12T00:10:04;9.02;;;6.32;;
70153;SDS011;57519;51.494;-2.626;2022-11-12T00:12:30;12.97;;;5.87;;
70153;SDS011;57519;51.494;-2.626;2022-11-12T00:14:55;12.02;;;6.43;;
70153;SDS011;57519;51.494;-2.626;2022-11-12T00:17:20;16.20;;;7.43;;
70153;SDS011;57519;51.494;-2.626;2022-11-12T00:19:46;13.73;;;7.03;;
70153;SDS011;57519;51.494;-2.626;2022-11-12T00:22:11;11.47;;;5.93;;
70153;SDS011;57519;51.494;-2.626;2022-11-12T00:24:37;10.67;;;7.00;;
70153;SDS011;57519;51.494;-2.626;2022-11-12T00:27:02;15.70;;;8.77;;
70153;SDS011;57519;51.494;-2.626;2022-11-12T00:29:28;13.83;;;8.77;;
70153;SDS011;57519;51.494;-2.626;2022-11-12T00:31:53;11.87;;;9.17;;
70153;SDS011;57519;51.494;-2.626;2022-11-12T00:34:19;11.03;;;9.50;;
70153;SDS011;57519;51.494;-2.626;2022-11-12T00:36:44;15.57;;;11.17;;
70153;SDS011;57519;51.494;-2.626;2022-11-12T00:39:10;12.20;;;10.67;;
70153;SDS011;57519;51.494;-2.626;2022-11-12T00:41:35;13.25;;;10.60;;
70153;SDS011;57519;51.494;-2.626;2022-11-12T00:44:00;16.60;;;12.40;;
70153;SDS011;57519;51.494;-2.626;2022-11-12T00:46:26;20.07;;;13.17;;
70153;SDS011;57519;51.494;-2.626;2022-11-12T00:48:51;13.73;;;11.23;;
70153;SDS011;57519;51.494;-2.626;2022-11-12T00:51:16;18.20;;;12.47;;
70153;SDS011;57519;51.494;-2.626;2022-11-12T00:53:42;14.85;;;12.50;;
70153;SDS011;57519;51.494;-2.626;2022-11-12T00:56:08;15.40;;;12.23;;
70153;SDS011;57519;51.494;-2.626;2022-11-12T00:58:34;14.95;;;12.20;;
70153;SDS011;57519;51.494;-2.626;2022-11-12T01:01:03;14.57;;;11.43;;
70153;SDS011;57519;51.494;-2.626;2022-11-12T01:03:31;19.48;;;13.80;;
70153;SDS011;57519;51.494;-2.626;2022-11-12T01:06:03;20.07;;;13.20;;
70153;SDS011;57519;51.494;-2.626;2022-11-12T01:08:29;18.83;;;12.43;;
70153;SDS011;57519;51.494;-2.626;2022-11-12T01:10:55;16.57;;;12.00;;
70153;SDS011;57519;51.494;-2.626;2022-11-12T01:13:20;16.13;;;10.23;;
70153;SDS011;57519;51.494;-2.626;2022-11-12T01:15:46;11.77;;;8.30;;
70153;SDS011;57519;51.494;-2.626;2022-11-12T01:18:11;15.40;;;9.77;;
70153;SDS011;57519;51.494;-2.626;2022-11-12T01:20:37;15.53;;;9.53;;
70153;SDS011;57519;51.494;-2.626;2022-11-12T01:23:03;15.80;;;8.90;;
70153;SDS011;57519;51.494;-2.626;2022-11-12T01:25:30;13.10;;;9.15;;
70153;SDS011;57519;51.494;-2.626;2022-11-12T01:27:55;12.30;;;8.13;;
70153;SDS011;57519;51.494;-2.626;2022-11-12T01:30:20;14.30;;;8.33;;
70153;SDS011;57519;51.494;-2.626;2022-11-12T01:32:46;12.73;;;8.20;;
70153;SDS011;57519;51.494;-2.626;2022-11-12T01:35:12;12.95;;;8.10;;
70153;SDS011;57519;51.494;-2.626;2022-11-12T01:37:37;11.87;;;7.30;;
70153;SDS011;57519;51.494;-2.626;2022-11-12T01:40:03;23.80;;;8.77;;
70153;SDS011;57519;51.494;-2.626;2022-11-12T01:42:29;14.60;;;7.00;;
70153;SDS011;57519;51.494;-2.626;2022-11-12T01:44:56;12.10;;;7.70;;
70153;SDS011;57519;51.494;-2.626;2022-11-12T01:47:24;13.50;;;7.47;;
70153;SDS011;57519;51.494;-2.626;2022-11-12T01:50:05;14.60;;;7.38;;
70153;SDS011;57519;51.494;-2.626;2022-11-12T01:52:45;15.77;;;7.80;;
70153;SDS011;57519;51.494;-2.626;2022-11-12T01:55:19;16.60;;;7.55;;
70153;SDS011;57519;51.494;-2.626;2022-11-12T01:57:58;14.50;;;6.88;;
70153;SDS011;57519;51.494;-2.626;2022-11-12T02:00:29;10.47;;;6.10;;
70153;SDS011;57519;51.494;-2.626;2022-11-12T02:02:56;16.77;;;7.20;;
70153;SDS011;57519;51.494;-2.626;2022-11-12T02:05:24;17.63;;;7.43;;
70153;SDS011;57519;51.494;-2.626;2022-11-12T02:07:52;11.63;;;6.70;;
70153;SDS011;57519;51.494;-2.626;2022-11-12T02:10:20;13.90;;;7.25;;
70153;SDS011;57519;51.494;-2.626;2022-11-12T02:12:46;9.45;;;5.88;;
70153;SDS011;57519;51.494;-2.626;2022-11-12T02:15:32;15.63;;;7.07;;
70153;SDS011;57519;51.494;-2.626;2022-11-12T02:17:58;9.27;;;5.83;;
70153;SDS011;57519;51.494;-2.626;2022-11-12T02:20:23;15.20;;;6.47;;
70153;SDS011;57519;51.494;-2.626;2022-11-12T02:22:49;14.55;;;6.80;;
70153;SDS011;57519;51.494;-2.626;2022-11-12T02:25:19;11.07;;;5.57;;
70153;SDS011;57519;51.494;-2.626;2022-11-12T02:27:47;12.18;;;5.88;;
70153;SDS011;57519;51.494;-2.626;2022-11-12T02:30:16;13.57;;;5.47;;
70153;SDS011;57519;51.494;-2.626;2022-11-12T02:32:42;11.20;;;6.20;;
70153;SDS011;57519;51.494;-2.626;2022-11-12T02:35:08;11.93;;;6.33;;
70153;SDS011;57519;51.494;-2.626;2022-11-12T02:37:33;19.60;;;7.53;;
70153;SDS011;57519;51.494;-2.626;2022-11-12T02:39:58;11.33;;;6.30;;
70153;SDS011;57519;51.494;-2.626;2022-11-12T02:42:24;11.98;;;6.05;;
70153;SDS011;57519;51.494;-2.626;2022-11-12T02:44:49;13.13;;;6.10;;
70153;SDS011;57519;51.494;-2.626;2022-11-12T02:47:15;16.83;;;7.37;;
70153;SDS011;57519;51.494;-2.626;2022-11-12T02:49:40;14.27;;;6.03;;
70153;SDS011;57519;51.494;-2.626;2022-11-12T02:52:05;10.87;;;6.30;;
70153;SDS011;57519;51.494;-2.626;2022-11-12T02:54:31;10.38;;;5.63;;
70153;SDS011;57519;51.494;-2.626;2022-11-12T02:56:57;12.50;;;5.37;;
70153;SDS011;57519;51.494;-2.626;2022-11-12T02:59:22;10.53;;;5.57;;
70153;SDS011;57519;51.494;-2.626;2022-11-12T03:01:47;9.98;;;5.53;;
70153;SDS011;57519;51.494;-2.626;2022-11-12T03:04:13;11.37;;;6.07;;
70153;SDS011;57519;51.494;-2.626;2022-11-12T03:06:38;11.77;;;5.50;;
70153;SDS011;57519;51.494;-2.626;2022-11-12T03:09:04;13.53;;;5.93;;
70153;SDS011;57519;51.494;-2.626;2022-11-12T03:11:29;17.20;;;6.13;;
70153;SDS011;57519;51.494;-2.626;2022-11-12T03:13:55;11.33;;;6.50;;
70153;SDS011;57519;51.494;-2.626;2022-11-12T03:16:20;17.43;;;7.47;;
70153;SDS011;57519;51.494;-2.626;2022-11-12T03:18:45;12.53;;;5.37;;
70153;SDS011;57519;51.494;-2.626;2022-11-12T03:21:11;11.07;;;6.17;;
70153;SDS011;57519;51.494;-2.626;2022-11-12T03:23:37;13.23;;;5.85;;
70153;SDS011;57519;51.494;-2.626;2022-11-12T03:26:05;11.43;;;6.10;;
70153;SDS011;57519;51.494;-2.626;2022-11-12T03:28:31;8.55;;;5.28;;
70153;SDS011;57519;51.494;-2.626;2022-11-12T03:30:57;13.10;;;6.22;;
70153;SDS011;57519;51.494;-2.626;2022-11-12T03:33:23;15.82;;;7.03;;
70153;SDS011;57519;51.494;-2.626;2022-11-12T03:35:49;12.37;;;5.87;;
70153;SDS011;57519;51.494;-2.626;2022-11-12T03:38:14;10.33;;;6.40;;
70153;SDS011;57519;51.494;-2.626;2022-11-12T03:40:40;12.50;;;6.43;;
70153;SDS011;57519;51.494;-2.626;2022-11-12T03:43:05;13.63;;;5.82;;
70153;SDS011;57519;51.494;-2.626;2022-11-12T03:45:31;9.20;;;6.30;;
70153;SDS011;57519;51.494;-2.626;2022-11-12T03:47:56;10.13;;;6.87;;
70153;SDS011;57519;51.494;-2.626;2022-11-12T03:50:23;11.10;;;6.55;;
70153;SDS011;57519;51.494;-2.626;2022-11-12T03:52:52;11.25;;;6.63;;
70153;SDS011;57519;51.494;-2.626;2022-11-12T03:55:19;12.27;;;6.87;;
70153;SDS011;57519;51.494;-2.626;2022-11-12T03:57:49;12.05;;;6.60;;
70153;SDS011;57519;51.494;-2.626;2022-11-12T04:00:15;11.50;;;7.80;;
70153;SDS011;57519;51.494;-2.626;2022-11-12T04:02:41;14.07;;;7.97;;
70153;SDS011;57519;51.494;-2.626;2022-11-12T04:05:07;13.67;;;9.13;;
70153;SDS011;57519;51.494;-2.626;2022-11-12T04:07:58;10.18;;;9.00;;
70153;SDS011;57519;51.494;-2.626;2022-11-12T04:10:44;15.23;;;10.38;;
70153;SDS011;57519;51.494;-2.626;2022-11-12T04:13:09;11.70;;;9.50;;
70153;SDS011;57519;51.494;-2.626;2022-11-12T04:15:56;18.80;;;10.50;;
70153;SDS011;57519;51.494;-2.626;2022-11-12T04:18:42;13.05;;;9.93;;
70153;SDS011;57519;51.494;-2.626;2022-11-12T04:21:31;16.83;;;11.70;;
70153;SDS011;57519;51.494;-2.626;2022-11-12T04:24:15;15.50;;;13.85;;
70153;SDS011;57519;51.494;-2.626;2022-11-12T04:27:00;15.75;;;13.23;;
70153;SDS011;57519;51.494;-2.626;2022-11-12T04:29:26;15.63;;;12.83;;
70153;SDS011;57519;51.494;-2.626;2022-11-12T04:32:10;16.48;;;14.65;;
70153;SDS011;57519;51.494;-2.626;2022-11-12T04:34:35;16.20;;;14.47;;
70153;SDS011;57519;51.494;-2.626;2022-11-12T04:37:02;17.35;;;14.25;;
70153;SDS011;57519;51.494;-2.626;2022-11-12T04:39:29;15.83;;;12.63;;
70153;SDS011;57519;51.494;-2.626;2022-11-12T04:41:54;16.20;;;12.70;;
70153;SDS011;57519;51.494;-2.626;2022-11-12T04:44:38;18.20;;;15.93;;
70153;SDS011;57519;51.494;-2.626;2022-11-12T04:47:22;16.98;;;15.48;;
70153;SDS011;57519;51.494;-2.626;2022-11-12T04:49:47;16.20;;;13.80;;
70153;SDS011;57519;51.494;-2.626;2022-11-12T04:52:14;16.50;;;14.05;;
70153;SDS011;57519;51.494;-2.626;2022-11-12T04:54:39;18.60;;;15.00;;
70153;SDS011;57519;51.494;-2.626;2022-11-12T04:57:05;13.63;;;12.23;;
70153;SDS011;57519;51.494;-2.626;2022-11-12T04:59:30;19.20;;;14.43;;
70153;SDS011;57519;51.494;-2.626;2022-11-12T05:01:56;13.85;;;11.90;;
70153;SDS011;57519;51.494;-2.626;2022-11-12T05:04:21;15.70;;;13.17;;
70153;SDS011;57519;51.494;-2.626;2022-11-12T05:06:46;17.47;;;12.60;;
70153;SDS011;57519;51.494;-2.626;2022-11-12T05:09:15;16.63;;;13.05;;
70153;SDS011;57519;51.494;-2.626;2022-11-12T05:11:41;20.83;;;15.13;;
70153;SDS011;57519;51.494;-2.626;2022-11-12T05:14:06;14.93;;;13.47;;
70153;SDS011;57519;51.494;-2.626;2022-11-12T05:16:32;17.03;;;12.87;;
70153;SDS011;57519;51.494;-2.626;2022-11-12T05:18:57;14.27;;;12.77;;
70153;SDS011;57519;51.494;-2.626;2022-11-12T05:21:23;14.10;;;12.07;;
70153;SDS011;57519;51.494;-2.626;2022-11-12T05:24:06;18.13;;;13.03;;
70153;SDS011;57519;51.494;-2.626;2022-11-12T05:26:32;17.70;;;11.15;;
70153;SDS011;57519;51.494;-2.626;2022-11-12T05:28:57;14.47;;;12.00;;
70153;SDS011;57519;51.494;-2.626;2022-11-12T05:31:23;13.73;;;12.47;;
70153;SDS011;57519;51.494;-2.626;2022-11-12T05:33:48;14.77;;;11.80;;
70153;SDS011;57519;51.494;-2.626;2022-11-12T05:36:13;17.07;;;12.73;;
70153;SDS011;57519;51.494;-2.626;2022-11-12T05:38:39;20.90;;;12.98;;
70153;SDS011;57519;51.494;-2.626;2022-11-12T05:41:04;14.20;;;12.63;;
70153;SDS011;57519;51.494;-2.626;2022-11-12T05:43:30;21.50;;;14.13;;
70153;SDS011;57519;51.494;-2.626;2022-11-12T05:45:55;21.93;;;12.97;;
70153;SDS011;57519;51.494;-2.626;2022-11-12T05:48:20;17.67;;;13.25;;
70153;SDS011;57519;51.494;-2.626;2022-11-12T05:50:50;14.73;;;12.80;;
70153;SDS011;57519;51.494;-2.626;2022-11-12T05:53:17;20.55;;;15.07;;
70153;SDS011;57519;51.494;-2.626;2022-11-12T05:55:42;18.53;;;12.80;;
70153;SDS011;57519;51.494;-2.626;2022-11-12T05:58:08;14.73;;;13.13;;
70153;SDS011;57519;51.494;-2.626;2022-11-12T06:00:34;17.07;;;12.73;;
70153;SDS011;57519;51.494;-2.626;2022-11-12T06:03:06;14.75;;;12.18;;
70153;SDS011;57519;51.494;-2.626;2022-11-12T06:05:35;14.93;;;10.73;;
70153;SDS011;57519;51.494;-2.626;2022-11-12T06:08:01;18.73;;;11.53;;
70153;SDS011;57519;51.494;-2.626;2022-11-12T06:10:29;19.05;;;10.93;;
70153;SDS011;57519;51.494;-2.626;2022-11-12T06:12:55;17.85;;;10.10;;
70153;SDS011;57519;51.494;-2.626;2022-11-12T06:15:20;16.17;;;11.07;;
70153;SDS011;57519;51.494;-2.626;2022-11-12T06:17:46;15.03;;;10.40;;
70153;SDS011;57519;51.494;-2.626;2022-11-12T06:20:11;17.77;;;9.95;;
70153;SDS011;57519;51.494;-2.626;2022-11-12T06:22:37;18.67;;;11.47;;
70153;SDS011;57519;51.494;-2.626;2022-11-12T06:25:03;14.47;;;8.67;;
70153;SDS011;57519;51.494;-2.626;2022-11-12T06:27:29;19.83;;;9.65;;
70153;SDS011;57519;51.494;-2.626;2022-11-12T06:29:55;17.77;;;9.00;;
70153;SDS011;57519;51.494;-2.626;2022-11-12T06:32:20;17.90;;;9.13;;
70153;SDS011;57519;51.494;-2.626;2022-11-12T06:34:46;17.27;;;9.17;;
70153;SDS011;57519;51.494;-2.626;2022-11-12T06:37:11;13.37;;;9.17;;
70153;SDS011;57519;51.494;-2.626;2022-11-12T06:39:37;23.67;;;10.37;;
70153;SDS011;57519;51.494;-2.626;2022-11-12T06:42:02;13.93;;;8.73;;
70153;SDS011;57519;51.494;-2.626;2022-11-12T06:44:28;16.27;;;8.60;;
70153;SDS011;57519;51.494;-2.626;2022-11-12T06:46:53;12.43;;;8.17;;
70153;SDS011;57519;51.494;-2.626;2022-11-12T06:49:19;15.53;;;8.30;;
70153;SDS011;57519;51.494;-2.626;2022-11-12T06:51:44;17.60;;;9.00;;
70153;SDS011;57519;51.494;-2.626;2022-11-12T06:54:09;12.50;;;7.43;;
70153;SDS011;57519;51.494;-2.626;2022-11-12T06:56:35;21.23;;;8.37;;
70153;SDS011;57519;51.494;-2.626;2022-11-12T06:59:00;11.13;;;7.80;;
70153;SDS011;57519;51.494;-2.626;2022-11-12T07:01:25;12.80;;;7.25;;
70153;SDS011;57519;51.494;-2.626;2022-11-12T07:03:51;13.57;;;7.57;;
70153;SDS011;57519;51.494;-2.626;2022-11-12T07:06:18;14.88;;;8.05;;
70153;SDS011;57519;51.494;-2.626;2022-11-12T07:08:45;14.73;;;7.83;;
70153;SDS011;57519;51.494;-2.626;2022-11-12T07:11:11;14.23;;;8.15;;
70153;SDS011;57519;51.494;-2.626;2022-11-12T07:13:37;11.95;;;7.22;;
70153;SDS011;57519;51.494;-2.626;2022-11-12T07:16:03;19.53;;;9.03;;
70153;SDS011;57519;51.494;-2.626;2022-11-12T07:18:30;16.52;;;8.07;;
70153;SDS011;57519;51.494;-2.626;2022-11-12T07:20:57;14.05;;;7.57;;
70153;SDS011;57519;51.494;-2.626;2022-11-12T07:23:26;17.98;;;8.52;;
70153;SDS011;57519;51.494;-2.626;2022-11-12T07:25:54;16.07;;;8.60;;
70153;SDS011;57519;51.494;-2.626;2022-11-12T07:28:24;14.38;;;7.95;;
70153;SDS011;57519;51.494;-2.626;2022-11-12T07:30:59;15.13;;;7.68;;
70153;SDS011;57519;51.494;-2.626;2022-11-12T07:33:26;15.18;;;7.80;;
70153;SDS011;57519;51.494;-2.626;2022-11-12T07:35:56;16.65;;;9.07;;
70153;SDS011;57519;51.494;-2.626;2022-11-12T07:38:26;20.23;;;9.33;;
70153;SDS011;57519;51.494;-2.626;2022-11-12T07:41:03;15.27;;;8.77;;
70153;SDS011;57519;51.494;-2.626;2022-11-12T07:43:29;13.07;;;7.63;;
70153;SDS011;57519;51.494;-2.626;2022-11-12T07:45:56;12.25;;;7.00;;
70153;SDS011;57519;51.494;-2.626;2022-11-12T07:48:23;12.70;;;7.95;;
70153;SDS011;57519;51.494;-2.626;2022-11-12T07:50:48;12.63;;;7.00;;
70153;SDS011;57519;51.494;-2.626;2022-11-12T07:53:13;15.00;;;8.80;;
70153;SDS011;57519;51.494;-2.626;2022-11-12T07:55:39;13.67;;;7.87;;
70153;SDS011;57519;51.494;-2.626;2022-11-12T07:58:04;15.43;;;8.13;;
70153;SDS011;57519;51.494;-2.626;2022-11-12T08:00:29;20.33;;;9.32;;
70153;SDS011;57519;51.494;-2.626;2022-11-12T08:02:57;15.77;;;8.07;;
70153;SDS011;57519;51.494;-2.626;2022-11-12T08:05:24;16.48;;;8.48;;
70153;SDS011;57519;51.494;-2.626;2022-11-12T08:07:50;15.30;;;8.30;;
70153;SDS011;57519;51.494;-2.626;2022-11-12T08:10:15;15.63;;;9.20;;
70153;SDS011;57519;51.494;-2.626;2022-11-12T08:12:41;22.47;;;9.97;;
70153;SDS011;57519;51.494;-2.626;2022-11-12T08:15:06;16.45;;;8.43;;
70153;SDS011;57519;51.494;-2.626;2022-11-12T08:17:32;15.17;;;8.67;;
70153;SDS011;57519;51.494;-2.626;2022-11-12T08:20:02;16.13;;;8.82;;
70153;SDS011;57519;51.494;-2.626;2022-11-12T08:22:28;23.60;;;10.73;;
70153;SDS011;57519;51.494;-2.626;2022-11-12T08:24:55;15.05;;;9.23;;
70153;SDS011;57519;51.494;-2.626;2022-11-12T08:27:20;15.97;;;8.87;;
70153;SDS011;57519;51.494;-2.626;2022-11-12T08:29:45;17.73;;;9.40;;
70153;SDS011;57519;51.494;-2.626;2022-11-12T08:32:11;17.15;;;9.57;;
70153;SDS011;57519;51.494;-2.626;2022-11-12T08:34:36;20.90;;;9.80;;
70153;SDS011;57519;51.494;-2.626;2022-11-12T08:37:05;34.38;;;12.75;;
70153;SDS011;57519;51.494;-2.626;2022-11-12T08:39:31;19.55;;;10.77;;
70153;SDS011;57519;51.494;-2.626;2022-11-12T08:41:56;21.27;;;9.63;;
70153;SDS011;57519;51.494;-2.626;2022-11-12T08:44:22;16.83;;;10.13;;
70153;SDS011;57519;51.494;-2.626;2022-11-12T08:46:47;21.40;;;9.67;;
70153;SDS011;57519;51.494;-2.626;2022-11-12T08:49:14;19.90;;;9.38;;
70153;SDS011;57519;51.494;-2.626;2022-11-12T08:51:40;20.03;;;10.10;;
70153;SDS011;57519;51.494;-2.626;2022-11-12T08:54:05;20.90;;;10.25;;
70153;SDS011;57519;51.494;-2.626;2022-11-12T08:56:31;20.00;;;10.43;;
70153;SDS011;57519;51.494;-2.626;2022-11-12T08:58:58;22.48;;;11.30;;
70153;SDS011;57519;51.494;-2.626;2022-11-12T09:01:24;21.80;;;11.10;;
70153;SDS011;57519;51.494;-2.626;2022-11-12T09:03:50;19.50;;;10.75;;
70153;SDS011;57519;51.494;-2.626;2022-11-12T09:06:15;24.57;;;11.67;;
70153;SDS011;57519;51.494;-2.626;2022-11-12T09:08:41;27.80;;;12.18;;
70153;SDS011;57519;51.494;-2.626;2022-11-12T09:11:06;20.60;;;11.57;;
70153;SDS011;57519;51.494;-2.626;2022-11-12T09:13:32;22.92;;;13.88;;
70153;SDS011;57519;51.494;-2.626;2022-11-12T09:15:59;22.98;;;11.63;;
70153;SDS011;57519;51.494;-2.626;2022-11-12T09:18:29;28.50;;;14.17;;
70153;SDS011;57519;51.494;-2.626;2022-11-12T09:20:58;19.13;;;12.13;;
70153;SDS011;57519;51.494;-2.626;2022-11-12T09:23:24;21.08;;;11.52;;
70153;SDS011;57519;51.494;-2.626;2022-11-12T09:25:49;27.63;;;12.87;;
70153;SDS011;57519;51.494;-2.626;2022-11-12T09:28:16;24.37;;;12.07;;
70153;SDS011;57519;51.494;-2.626;2022-11-12T09:30:43;25.90;;;11.07;;
70153;SDS011;57519;51.494;-2.626;2022-11-12T09:33:11;21.33;;;9.90;;
70153;SDS011;57519;51.494;-2.626;2022-11-12T09:35:37;20.60;;;11.17;;
70153;SDS011;57519;51.494;-2.626;2022-11-12T09:38:03;16.40;;;9.30;;
70153;SDS011;57519;51.494;-2.626;2022-11-12T09:46:00;21.20;;;9.40;;
70153;SDS011;57519;51.494;-2.626;2022-11-12T09:48:50;23.48;;;9.48;;
70153;SDS011;57519;51.494;-2.626;2022-11-12T09:51:26;26.60;;;10.52;;
70153;SDS011;57519;51.494;-2.626;2022-11-12T09:53:55;21.65;;;9.88;;
70153;SDS011;57519;51.494;-2.626;2022-11-12T09:56:22;18.13;;;10.20;;
70153;SDS011;57519;51.494;-2.626;2022-11-12T09:58:49;25.37;;;12.20;;
70153;SDS011;57519;51.494;-2.626;2022-11-12T10:01:21;19.85;;;9.80;;
70153;SDS011;57519;51.494;-2.626;2022-11-12T10:18:27;22.40;;;11.10;;
70153;SDS011;57519;51.494;-2.626;2022-11-12T10:21:10;21.25;;;10.60;;
70153;SDS011;57519;51.494;-2.626;2022-11-12T10:23:46;19.48;;;10.27;;
70153;SDS011;57519;51.494;-2.626;2022-11-12T10:26:17;18.17;;;9.57;;
70153;SDS011;57519;51.494;-2.626;2022-11-12T10:28:49;19.50;;;9.65;;
70153;SDS011;57519;51.494;-2.626;2022-11-12T10:31:23;24.55;;;10.57;;
70153;SDS011;57519;51.494;-2.626;2022-11-12T10:33:48;18.83;;;9.60;;
70153;SDS011;57519;51.494;-2.626;2022-11-12T10:36:33;19.50;;;9.87;;
70153;SDS011;57519;51.494;-2.626;2022-11-12T10:39:00;17.87;;;9.37;;
70153;SDS011;57519;51.494;-2.626;2022-11-12T10:41:27;16.60;;;9.15;;
70153;SDS011;57519;51.494;-2.626;2022-11-12T10:49:41;23.67;;;9.88;;
70153;SDS011;57519;51.494;-2.626;2022-11-12T10:51:41;18.38;;;9.00;;
70153;SDS011;57519;51.494;-2.626;2022-11-12T10:56:51;22.73;;;9.70;;
70153;SDS011;57519;51.494;-2.626;2022-11-12T10:59:17;20.10;;;8.85;;
70153;SDS011;57519;51.494;-2.626;2022-11-12T11:01:45;25.95;;;10.90;;
70153;SDS011;57519;51.494;-2.626;2022-11-12T11:06:59;18.10;;;9.02;;
70153;SDS011;57519;51.494;-2.626;2022-11-12T11:09:28;16.93;;;7.67;;
70153;SDS011;57519;51.494;-2.626;2022-11-12T11:11:54;14.50;;;8.10;;
70153;SDS011;57519;51.494;-2.626;2022-11-12T11:16:49;17.13;;;8.93;;
70153;SDS011;57519;51.494;-2.626;2022-11-12T11:19:16;13.40;;;7.20;;
70153;SDS011;57519;51.494;-2.626;2022-11-12T11:24:29;13.43;;;7.30;;
70153;SDS011;57519;51.494;-2.626;2022-11-12T11:27:25;11.50;;;6.82;;
70153;SDS011;57519;51.494;-2.626;2022-11-12T11:30:06;12.65;;;6.45;;
70153;SDS011;57519;51.494;-2.626;2022-11-12T11:35:38;15.73;;;7.50;;
70153;SDS011;57519;51.494;-2.626;2022-11-12T11:38:28;11.57;;;6.93;;
70153;SDS011;57519;51.494;-2.626;2022-11-12T11:40:59;18.13;;;7.38;;
70153;SDS011;57519;51.494;-2.626;2022-11-12T11:52:25;18.10;;;7.80;;
70153;SDS011;57519;51.494;-2.626;2022-11-12T12:00:28;11.57;;;6.53;;
70153;SDS011;57519;51.494;-2.626;2022-11-12T12:05:43;13.82;;;6.60;;
70153;SDS011;57519;51.494;-2.626;2022-11-12T12:11:25;14.27;;;6.35;;
70153;SDS011;57519;51.494;-2.626;2022-11-12T12:19:45;13.02;;;6.50;;
70153;SDS011;57519;51.494;-2.626;2022-11-12T12:25:16;14.65;;;6.47;;
70153;SDS011;57519;51.494;-2.626;2022-11-12T12:27:52;15.68;;;7.13;;
70153;SDS011;57519;51.494;-2.626;2022-11-12T12:30:41;16.70;;;6.80;;
70153;SDS011;57519;51.494;-2.626;2022-11-12T12:33:21;14.90;;;6.65;;
70153;SDS011;57519;51.494;-2.626;2022-11-12T12:35:50;13.95;;;6.63;;
70153;SDS011;57519;51.494;-2.626;2022-11-12T12:41:11;11.63;;;5.45;;
70153;SDS011;57519;51.494;-2.626;2022-11-12T12:43:44;13.20;;;6.17;;
70153;SDS011;57519;51.494;-2.626;2022-11-12T12:46:16;14.60;;;6.80;;
70153;SDS011;57519;51.494;-2.626;2022-11-12T12:48:46;13.70;;;5.82;;
70153;SDS011;57519;51.494;-2.626;2022-11-12T12:51:15;14.63;;;6.25;;
70153;SDS011;57519;51.494;-2.626;2022-11-12T12:53:41;10.27;;;5.45;;
70153;SDS011;57519;51.494;-2.626;2022-11-12T13:06:15;20.23;;;7.03;;
70153;SDS011;57519;51.494;-2.626;2022-11-12T13:08:47;15.40;;;6.10;;
70153;SDS011;57519;51.494;-2.626;2022-11-12T13:11:51;15.70;;;6.25;;
70153;SDS011;57519;51.494;-2.626;2022-11-12T13:19:37;10.82;;;5.57;;
70153;SDS011;57519;51.494;-2.626;2022-11-12T13:32:58;12.53;;;6.13;;
70153;SDS011;57519;51.494;-2.626;2022-11-12T13:35:28;11.13;;;6.18;;
70153;SDS011;57519;51.494;-2.626;2022-11-12T13:38:00;12.10;;;6.47;;
70153;SDS011;57519;51.494;-2.626;2022-11-12T13:48:24;13.35;;;5.95;;
70153;SDS011;57519;51.494;-2.626;2022-11-12T13:50:53;12.15;;;6.30;;
70153;SDS011;57519;51.494;-2.626;2022-11-12T13:53:22;14.17;;;5.90;;
70153;SDS011;57519;51.494;-2.626;2022-11-12T13:55:50;14.27;;;5.68;;
70153;SDS011;57519;51.494;-2.626;2022-11-12T13:58:18;10.63;;;5.13;;
70153;SDS011;57519;51.494;-2.626;2022-11-12T14:00:50;9.48;;;5.03;;
70153;SDS011;57519;51.494;-2.626;2022-11-12T14:03:17;13.25;;;6.15;;
70153;SDS011;57519;51.494;-2.626;2022-11-12T14:05:45;13.37;;;5.90;;
70153;SDS011;57519;51.494;-2.626;2022-11-12T14:08:15;11.95;;;5.43;;
70153;SDS011;57519;51.494;-2.626;2022-11-12T14:22:36;10.23;;;4.80;;
70153;SDS011;57519;51.494;-2.626;2022-11-12T14:24:43;19.02;;;6.70;;
70153;SDS011;57519;51.494;-2.626;2022-11-12T14:32:39;18.50;;;5.97;;
70153;SDS011;57519;51.494;-2.626;2022-11-12T14:35:19;15.65;;;6.20;;
70153;SDS011;57519;51.494;-2.626;2022-11-12T14:37:52;12.63;;;5.25;;
70153;SDS011;57519;51.494;-2.626;2022-11-12T14:40:23;14.63;;;5.15;;
70153;SDS011;57519;51.494;-2.626;2022-11-12T14:42:52;11.57;;;5.47;;
70153;SDS011;57519;51.494;-2.626;2022-11-12T14:45:20;10.43;;;5.37;;
70153;SDS011;57519;51.494;-2.626;2022-11-12T14:47:48;18.13;;;6.88;;
70153;SDS011;57519;51.494;-2.626;2022-11-12T14:50:16;14.05;;;5.57;;
70153;SDS011;57519;51.494;-2.626;2022-11-12T14:52:56;14.40;;;6.35;;
70153;SDS011;57519;51.494;-2.626;2022-11-12T14:55:29;20.10;;;6.60;;
70153;SDS011;57519;51.494;-2.626;2022-11-12T14:57:58;18.60;;;7.00;;
70153;SDS011;57519;51.494;-2.626;2022-11-12T15:02:57;12.25;;;6.00;;
70153;SDS011;57519;51.494;-2.626;2022-11-12T15:05:24;17.52;;;6.10;;
70153;SDS011;57519;51.494;-2.626;2022-11-12T15:10:30;13.43;;;5.37;;
70153;SDS011;57519;51.494;-2.626;2022-11-12T15:13:08;14.23;;;5.43;;
70153;SDS011;57519;51.494;-2.626;2022-11-12T15:15:48;12.90;;;5.22;;
70153;SDS011;57519;51.494;-2.626;2022-11-12T15:18:22;10.50;;;5.38;;
70153;SDS011;57519;51.494;-2.626;2022-11-12T15:23:45;10.73;;;5.40;;
70153;SDS011;57519;51.494;-2.626;2022-11-12T15:26:23;10.85;;;5.05;;
70153;SDS011;57519;51.494;-2.626;2022-11-12T15:29:02;12.05;;;5.45;;
70153;SDS011;57519;51.494;-2.626;2022-11-12T15:31:46;14.25;;;5.45;;
70153;SDS011;57519;51.494;-2.626;2022-11-12T15:36:59;13.27;;;6.07;;
70153;SDS011;57519;51.494;-2.626;2022-11-12T15:39:28;15.40;;;6.03;;
70153;SDS011;57519;51.494;-2.626;2022-11-12T15:42:16;18.10;;;6.75;;
70153;SDS011;57519;51.494;-2.626;2022-11-12T15:44:41;14.98;;;6.45;;
70153;SDS011;57519;51.494;-2.626;2022-11-12T15:47:07;11.00;;;5.23;;
70153;SDS011;57519;51.494;-2.626;2022-11-12T15:49:45;12.82;;;5.18;;
70153;SDS011;57519;51.494;-2.626;2022-11-12T15:52:14;11.52;;;5.07;;
70153;SDS011;57519;51.494;-2.626;2022-11-12T15:54:39;19.60;;;6.27;;
70153;SDS011;57519;51.494;-2.626;2022-11-12T15:57:07;18.43;;;6.27;;
70153;SDS011;57519;51.494;-2.626;2022-11-12T15:59:36;15.18;;;5.55;;
70153;SDS011;57519;51.494;-2.626;2022-11-12T16:02:02;17.20;;;6.53;;
70153;SDS011;57519;51.494;-2.626;2022-11-12T16:04:27;11.50;;;5.47;;
70153;SDS011;57519;51.494;-2.626;2022-11-12T16:06:53;16.63;;;6.37;;
70153;SDS011;57519;51.494;-2.626;2022-11-12T16:09:18;15.37;;;5.67;;
70153;SDS011;57519;51.494;-2.626;2022-11-12T16:11:43;15.47;;;5.57;;
70153;SDS011;57519;51.494;-2.626;2022-11-12T16:14:10;13.18;;;5.82;;
70153;SDS011;57519;51.494;-2.626;2022-11-12T16:16:37;18.35;;;7.10;;
70153;SDS011;57519;51.494;-2.626;2022-11-12T16:19:09;17.33;;;6.38;;
70153;SDS011;57519;51.494;-2.626;2022-11-12T16:21:37;13.60;;;5.93;;
70153;SDS011;57519;51.494;-2.626;2022-11-12T16:24:03;13.10;;;6.38;;
70153;SDS011;57519;51.494;-2.626;2022-11-12T16:26:29;12.85;;;6.68;;
70153;SDS011;57519;51.494;-2.626;2022-11-12T16:28:56;16.00;;;7.10;;
70153;SDS011;57519;51.494;-2.626;2022-11-12T16:31:22;11.43;;;6.40;;
70153;SDS011;57519;51.494;-2.626;2022-11-12T16:33:49;15.50;;;6.57;;
70153;SDS011;57519;51.494;-2.626;2022-11-12T16:36:14;14.27;;;6.27;;
70153;SDS011;57519;51.494;-2.626;2022-11-12T16:38:40;16.38;;;7.60;;